createdAt,value
2018-03-31T00:00:57.202Z,19.06
2018-03-31T00:01:57.484Z,19.15
2018-03-31T00:02:57.216Z,19.10
2018-03-31T00:03:57.248Z,19.09
2018-03-31T00:04:57.267Z,19.05
2018-03-31T00:05:57.302Z,19.10
2018-03-31T00:06:57.394Z,19.05
2018-03-31T00:07:57.719Z,19.06
2018-03-31T00:08:57.395Z,19.07
2018-03-31T00:09:57.423Z,19.06
2018-03-31T00:10:57.450Z,19.09
2018-03-31T00:11:57.493Z,19.01
2018-03-31T00:12:57.503Z,19.16
2018-03-31T00:13:57.627Z,19.09
2018-03-31T00:14:57.925Z,19.07
2018-03-31T00:15:57.645Z,19.13
2018-03-31T00:16:57.673Z,19.10
2018-03-31T00:17:57.764Z,19.07
2018-03-31T00:18:57.771Z,19.09
2018-03-31T00:19:57.772Z,19.06
2018-03-31T00:20:57.866Z,19.09
2018-03-31T00:21:58.149Z,19.09
2018-03-31T00:22:57.804Z,19.10
2018-03-31T00:23:57.920Z,19.09
2018-03-31T00:24:58.024Z,19.06
2018-03-31T00:25:57.882Z,19.12
2018-03-31T00:26:58.058Z,19.10
2018-03-31T00:27:57.943Z,19.01
2018-03-31T00:28:58.317Z,19.05
2018-03-31T00:29:57.997Z,19.10
2018-03-31T00:30:58.027Z,19.06
2018-03-31T00:31:58.107Z,19.02
2018-03-31T00:32:58.164Z,18.99
2018-03-31T00:33:58.168Z,19.07
2018-03-31T00:34:58.208Z,18.97
2018-03-31T00:35:58.616Z,19.05
2018-03-31T00:36:58.273Z,18.99
2018-03-31T00:37:58.229Z,18.97
2018-03-31T00:38:58.352Z,19.02
2018-03-31T00:39:58.290Z,19.01
2018-03-31T00:40:58.369Z,18.97
2018-03-31T00:41:58.364Z,19.02
2018-03-31T00:42:58.746Z,18.94
2018-03-31T00:43:58.547Z,19.06
2018-03-31T00:44:58.494Z,19.07
2018-03-31T00:45:58.559Z,18.99
2018-03-31T00:46:58.510Z,19.01
2018-03-31T00:47:58.579Z,18.97
2018-03-31T00:48:58.626Z,19.01
2018-03-31T00:49:59.003Z,18.90
2018-03-31T00:50:58.673Z,19.01
2018-03-31T00:51:58.744Z,19.05
2018-03-31T00:52:58.727Z,19.05
2018-03-31T00:53:58.768Z,19.01
2018-03-31T00:54:58.795Z,18.94
2018-03-31T00:55:58.764Z,18.99
2018-03-31T00:56:59.167Z,18.97
2018-03-31T00:57:58.818Z,18.97
2018-03-31T00:58:59.015Z,19.01
2018-03-31T00:59:58.882Z,19.01
2018-03-31T01:00:58.959Z,19.05
2018-03-31T01:01:58.926Z,18.96
2018-03-31T01:02:58.961Z,18.93
2018-03-31T01:03:59.351Z,19.02
2018-03-31T01:04:59.100Z,19.02
2018-03-31T01:05:59.048Z,19.02
2018-03-31T01:06:59.109Z,18.94
2018-03-31T01:07:59.108Z,18.94
2018-03-31T01:08:59.173Z,18.94
2018-03-31T01:09:59.221Z,19.01
2018-03-31T01:10:59.552Z,18.90
2018-03-31T01:11:59.227Z,18.89
2018-03-31T01:12:59.257Z,18.90
2018-03-31T01:13:59.303Z,18.87
2018-03-31T01:14:59.413Z,19.02
2018-03-31T01:15:59.414Z,18.89
2018-03-31T01:16:59.449Z,18.96
2018-03-31T01:17:59.697Z,18.96
2018-03-31T01:18:59.486Z,19.01
2018-03-31T01:19:59.461Z,18.93
2018-03-31T01:20:59.638Z,18.86
2018-03-31T01:21:59.572Z,18.93
2018-03-31T01:22:59.848Z,18.89
2018-03-31T01:23:59.649Z,18.96
2018-03-31T01:24:59.968Z,18.94
2018-03-31T01:25:59.712Z,18.89
2018-03-31T01:26:59.732Z,19.05
2018-03-31T01:27:59.837Z,19.02
2018-03-31T01:28:59.775Z,18.90
2018-03-31T01:29:59.797Z,18.84
2018-03-31T01:31:00.132Z,18.89
2018-03-31T01:31:59.855Z,18.93
2018-03-31T01:32:59.972Z,18.87
2018-03-31T01:34:00.162Z,18.89
2018-03-31T01:34:59.942Z,18.94
2018-03-31T01:35:59.994Z,18.87
2018-03-31T01:37:00.254Z,18.90
2018-03-31T01:38:00.105Z,18.99
2018-03-31T01:39:00.006Z,18.93
2018-03-31T01:40:00.115Z,18.87
2018-03-31T01:41:00.230Z,18.97
2018-03-31T01:42:00.169Z,18.87
2018-03-31T01:43:00.516Z,18.99
2018-03-31T01:44:00.223Z,18.97
2018-03-31T01:45:00.251Z,18.90
2018-03-31T01:46:00.209Z,18.91
2018-03-31T01:47:00.379Z,18.97
2018-03-31T01:48:00.269Z,18.93
2018-03-31T01:49:00.663Z,18.94
2018-03-31T01:50:00.392Z,18.96
2018-03-31T01:51:00.407Z,18.83
2018-03-31T01:52:00.476Z,18.91
2018-03-31T01:53:00.496Z,18.90
2018-03-31T01:54:00.473Z,18.94
2018-03-31T01:55:00.840Z,18.91
2018-03-31T01:56:00.561Z,18.87
2018-03-31T01:57:00.602Z,18.89
2018-03-31T01:58:00.952Z,18.94
2018-03-31T01:59:00.620Z,18.78
2018-03-31T02:00:00.701Z,18.86
2018-03-31T02:01:00.997Z,18.84
2018-03-31T02:02:00.729Z,18.91
2018-03-31T02:03:00.724Z,18.89
2018-03-31T02:04:00.784Z,18.91
2018-03-31T02:05:00.779Z,18.82
2018-03-31T02:06:00.794Z,18.83
2018-03-31T02:07:01.184Z,18.91
2018-03-31T02:08:00.903Z,18.91
2018-03-31T02:09:00.932Z,18.82
2018-03-31T02:10:01.037Z,18.87
2018-03-31T02:11:01.027Z,18.79
2018-03-31T02:12:00.972Z,18.87
2018-03-31T02:13:01.427Z,18.86
2018-03-31T02:14:01.034Z,18.84
2018-03-31T02:15:01.132Z,18.87
2018-03-31T02:16:01.087Z,18.82
2018-03-31T02:17:01.184Z,18.90
2018-03-31T02:18:01.261Z,18.87
2018-03-31T02:19:01.536Z,18.83
2018-03-31T02:20:01.201Z,18.87
2018-03-31T02:21:01.237Z,18.84
2018-03-31T02:22:01.255Z,18.78
2018-03-31T02:23:01.409Z,18.87
2018-03-31T02:24:01.384Z,18.83
2018-03-31T02:25:01.718Z,18.84
2018-03-31T02:26:01.383Z,18.87
2018-03-31T02:27:02.006Z,18.83
2018-03-31T02:28:01.586Z,18.78
2018-03-31T02:29:01.521Z,18.84
2018-03-31T02:30:01.554Z,18.78
2018-03-31T02:31:01.867Z,18.83
2018-03-31T02:32:01.756Z,18.78
2018-03-31T02:33:01.584Z,18.82
2018-03-31T02:34:01.618Z,18.79
2018-03-31T02:35:01.664Z,18.82
2018-03-31T02:36:01.660Z,18.78
2018-03-31T02:37:02.067Z,18.75
2018-03-31T02:38:01.785Z,18.83
2018-03-31T02:39:01.799Z,18.84
2018-03-31T02:40:01.779Z,18.79
2018-03-31T02:41:01.861Z,18.79
2018-03-31T02:42:01.836Z,18.83
2018-03-31T02:43:01.925Z,18.82
2018-03-31T02:44:02.250Z,18.83
2018-03-31T02:45:01.979Z,18.84
2018-03-31T02:46:02.024Z,18.82
2018-03-31T02:47:02.043Z,18.78
2018-03-31T02:48:02.090Z,18.82
2018-03-31T02:49:02.131Z,18.82
2018-03-31T02:50:02.097Z,18.75
2018-03-31T02:51:02.448Z,18.79
2018-03-31T02:52:02.216Z,18.78
2018-03-31T02:53:02.209Z,18.78
2018-03-31T02:54:02.240Z,18.79
2018-03-31T02:55:02.467Z,18.86
2018-03-31T02:56:02.751Z,18.82
2018-03-31T02:57:02.309Z,18.76
2018-03-31T02:58:02.693Z,18.79
2018-03-31T02:59:02.392Z,18.76
2018-03-31T03:00:02.512Z,18.76
2018-03-31T03:01:02.406Z,18.72
2018-03-31T03:02:02.468Z,18.76
2018-03-31T03:03:02.496Z,18.76
2018-03-31T03:04:02.476Z,18.79
2018-03-31T03:05:02.805Z,18.74
2018-03-31T03:06:02.530Z,18.75
2018-03-31T03:07:02.611Z,18.75
2018-03-31T03:08:02.667Z,18.69
2018-03-31T03:09:02.639Z,18.75
2018-03-31T03:10:02.696Z,18.74
2018-03-31T03:11:02.681Z,18.68
2018-03-31T03:12:03.082Z,18.72
2018-03-31T03:13:02.736Z,18.79
2018-03-31T03:14:02.830Z,18.74
2018-03-31T03:15:02.881Z,18.75
2018-03-31T03:16:02.875Z,18.75
2018-03-31T03:17:02.928Z,18.75
2018-03-31T03:18:02.952Z,18.66
2018-03-31T03:19:03.267Z,18.68
2018-03-31T03:20:02.943Z,18.71
2018-03-31T03:21:02.962Z,18.74
2018-03-31T03:22:03.000Z,18.75
2018-03-31T03:23:03.082Z,18.72
2018-03-31T03:24:03.074Z,18.72
2018-03-31T03:25:03.136Z,18.72
2018-03-31T03:26:03.478Z,18.69
2018-03-31T03:27:03.148Z,18.66
2018-03-31T03:28:03.172Z,18.72
2018-03-31T03:29:03.248Z,18.60
2018-03-31T03:30:03.286Z,18.69
2018-03-31T03:31:03.309Z,18.72
2018-03-31T03:32:03.397Z,18.62
2018-03-31T03:33:03.752Z,18.74
2018-03-31T03:34:03.412Z,18.66
2018-03-31T03:35:03.436Z,18.65
2018-03-31T03:36:03.506Z,18.65
2018-03-31T03:37:03.498Z,18.66
2018-03-31T03:38:03.562Z,18.72
2018-03-31T03:39:03.484Z,18.64
2018-03-31T03:40:03.874Z,18.64
2018-03-31T03:41:03.546Z,18.64
2018-03-31T03:42:03.672Z,18.66
2018-03-31T03:43:03.637Z,18.66
2018-03-31T03:44:03.751Z,18.65
2018-03-31T03:45:03.725Z,18.64
2018-03-31T03:46:03.757Z,18.65
2018-03-31T03:47:04.066Z,18.71
2018-03-31T03:48:03.848Z,18.57
2018-03-31T03:49:03.833Z,18.66
2018-03-31T03:50:03.928Z,18.68
2018-03-31T03:51:04.020Z,18.62
2018-03-31T03:52:03.969Z,18.65
2018-03-31T03:53:03.961Z,18.64
2018-03-31T03:54:04.331Z,18.71
2018-03-31T03:55:04.025Z,18.60
2018-03-31T03:56:04.176Z,18.62
2018-03-31T03:57:04.095Z,18.69
2018-03-31T03:58:04.120Z,18.62
2018-03-31T03:59:04.187Z,18.66
2018-03-31T04:00:04.452Z,18.62
2018-03-31T04:01:04.186Z,18.54
2018-03-31T04:02:04.214Z,18.64
2018-03-31T04:03:04.264Z,18.59
2018-03-31T04:04:04.276Z,18.54
2018-03-31T04:05:04.253Z,18.60
2018-03-31T04:06:04.731Z,18.57
2018-03-31T04:07:04.349Z,18.56
2018-03-31T04:08:04.369Z,18.64
2018-03-31T04:09:04.420Z,18.59
2018-03-31T04:10:04.377Z,18.57
2018-03-31T04:11:04.526Z,18.64
2018-03-31T04:12:04.788Z,18.56
2018-03-31T04:13:04.524Z,18.56
2018-03-31T04:14:04.552Z,18.60
2018-03-31T04:15:04.527Z,18.56
2018-03-31T04:16:04.622Z,18.62
2018-03-31T04:17:04.631Z,18.56
2018-03-31T04:18:04.958Z,18.62
2018-03-31T04:19:04.719Z,18.59
2018-03-31T04:20:04.716Z,18.64
2018-03-31T04:21:04.782Z,18.56
2018-03-31T04:22:04.728Z,18.60
2018-03-31T04:23:04.884Z,18.57
2018-03-31T04:24:05.213Z,18.57
2018-03-31T04:25:04.866Z,18.62
2018-03-31T04:26:04.843Z,18.62
2018-03-31T04:27:04.978Z,18.59
2018-03-31T04:28:04.976Z,18.60
2018-03-31T04:29:04.995Z,18.53
2018-03-31T04:30:05.346Z,18.49
2018-03-31T04:31:05.056Z,18.57
2018-03-31T04:32:05.108Z,18.56
2018-03-31T04:33:05.097Z,18.62
2018-03-31T04:34:05.334Z,18.59
2018-03-31T04:35:05.148Z,18.59
2018-03-31T04:36:05.608Z,18.64
2018-03-31T04:37:05.208Z,18.59
2018-03-31T04:38:05.367Z,18.53
2018-03-31T04:39:05.343Z,18.51
2018-03-31T04:40:05.302Z,18.51
2018-03-31T04:41:05.386Z,18.51
2018-03-31T04:42:05.659Z,18.49
2018-03-31T04:43:05.393Z,18.56
2018-03-31T04:44:05.364Z,18.51
2018-03-31T04:45:05.444Z,18.46
2018-03-31T04:46:05.443Z,18.51
2018-03-31T04:47:05.457Z,18.53
2018-03-31T04:48:05.862Z,18.49
2018-03-31T04:49:05.561Z,18.59
2018-03-31T04:50:05.586Z,18.57
2018-03-31T04:51:05.578Z,18.56
2018-03-31T04:52:05.693Z,18.53
2018-03-31T04:53:05.624Z,18.46
2018-03-31T04:54:05.996Z,18.49
2018-03-31T04:55:05.724Z,18.51
2018-03-31T04:56:05.766Z,18.53
2018-03-31T04:57:05.887Z,18.51
2018-03-31T04:58:05.887Z,18.54
2018-03-31T04:59:05.870Z,18.56
2018-03-31T05:00:06.182Z,18.47
2018-03-31T05:01:05.849Z,18.44
2018-03-31T05:02:05.929Z,18.59
2018-03-31T05:03:05.962Z,18.54
2018-03-31T05:04:05.995Z,18.56
2018-03-31T05:05:06.041Z,18.46
2018-03-31T05:06:06.358Z,18.46
2018-03-31T05:07:06.069Z,18.53
2018-03-31T05:08:06.108Z,18.47
2018-03-31T05:09:06.178Z,18.51
2018-03-31T05:10:06.197Z,18.51
2018-03-31T05:11:06.220Z,18.50
2018-03-31T05:12:06.224Z,18.50
2018-03-31T05:13:06.556Z,18.49
2018-03-31T05:14:06.273Z,18.56
2018-03-31T05:15:06.303Z,18.41
2018-03-31T05:16:06.339Z,18.51
2018-03-31T05:17:06.373Z,18.54
2018-03-31T05:18:06.399Z,18.47
2018-03-31T05:19:06.429Z,18.44
2018-03-31T05:20:06.745Z,18.44
2018-03-31T05:21:06.549Z,18.47
2018-03-31T05:22:06.503Z,18.44
2018-03-31T05:23:06.579Z,18.44
2018-03-31T05:24:06.560Z,18.53
2018-03-31T05:25:06.594Z,18.47
2018-03-31T05:26:06.626Z,18.56
2018-03-31T05:27:06.947Z,18.41
2018-03-31T05:28:06.691Z,18.42
2018-03-31T05:29:06.704Z,18.46
2018-03-31T05:30:06.747Z,18.44
2018-03-31T05:31:06.823Z,18.50
2018-03-31T05:32:06.907Z,18.47
2018-03-31T05:33:06.775Z,18.42
2018-03-31T05:34:07.180Z,18.56
2018-03-31T05:35:06.908Z,18.42
2018-03-31T05:36:06.855Z,18.46
2018-03-31T05:37:06.935Z,18.49
2018-03-31T05:38:07.018Z,18.41
2018-03-31T05:39:07.004Z,18.49
2018-03-31T05:40:07.095Z,18.46
2018-03-31T05:41:07.476Z,18.47
2018-03-31T05:42:07.115Z,18.46
2018-03-31T05:43:07.677Z,18.50
2018-03-31T05:44:07.182Z,18.47
2018-03-31T05:45:07.215Z,18.46
2018-03-31T05:46:07.201Z,18.42
2018-03-31T05:47:07.274Z,18.42
2018-03-31T05:48:07.573Z,18.46
2018-03-31T05:49:07.296Z,18.44
2018-03-31T05:50:07.423Z,18.51
2018-03-31T05:51:07.364Z,18.47
2018-03-31T05:52:07.394Z,18.41
2018-03-31T05:53:07.396Z,18.47
2018-03-31T05:54:07.425Z,18.50
2018-03-31T05:55:07.891Z,18.47
2018-03-31T05:56:07.530Z,18.47
2018-03-31T05:57:07.749Z,18.54
2018-03-31T05:58:07.688Z,18.44
2018-03-31T05:59:07.649Z,18.46
2018-03-31T06:00:07.664Z,18.56
2018-03-31T06:01:07.777Z,18.51
2018-03-31T06:02:08.152Z,18.53
2018-03-31T06:03:07.771Z,18.46
2018-03-31T06:04:07.723Z,18.51
2018-03-31T06:05:07.685Z,18.51
2018-03-31T06:06:07.773Z,18.53
2018-03-31T06:07:07.795Z,18.54
2018-03-31T06:08:07.822Z,18.57
2018-03-31T06:09:08.164Z,18.50
2018-03-31T06:10:07.904Z,18.46
2018-03-31T06:11:07.910Z,18.47
2018-03-31T06:12:07.949Z,18.44
2018-03-31T06:13:07.963Z,18.59
2018-03-31T06:14:08.006Z,18.46
2018-03-31T06:15:08.051Z,18.47
2018-03-31T06:16:08.358Z,18.53
2018-03-31T06:17:08.027Z,18.56
2018-03-31T06:18:08.167Z,18.50
2018-03-31T06:19:08.087Z,18.50
2018-03-31T06:20:08.174Z,18.50
2018-03-31T06:21:08.206Z,18.53
2018-03-31T06:22:08.259Z,18.49
2018-03-31T06:23:08.564Z,18.54
2018-03-31T06:24:08.286Z,18.53
2018-03-31T06:25:08.315Z,18.53
2018-03-31T06:26:08.291Z,18.51
2018-03-31T06:27:08.370Z,18.51
2018-03-31T06:28:08.395Z,18.64
2018-03-31T06:29:08.730Z,18.49
2018-03-31T06:30:08.405Z,18.50
2018-03-31T06:31:08.493Z,18.51
2018-03-31T06:32:08.478Z,18.57
2018-03-31T06:33:08.511Z,18.49
2018-03-31T06:34:08.570Z,18.51
2018-03-31T06:35:08.899Z,18.50
2018-03-31T06:36:08.626Z,18.49
2018-03-31T06:37:08.661Z,18.57
2018-03-31T06:38:08.689Z,18.50
2018-03-31T06:39:08.713Z,18.62
2018-03-31T06:40:08.705Z,18.49
2018-03-31T06:41:09.088Z,18.62
2018-03-31T06:42:08.797Z,18.57
2018-03-31T06:43:08.822Z,18.59
2018-03-31T06:44:08.812Z,18.59
2018-03-31T06:45:08.890Z,18.60
2018-03-31T06:46:08.912Z,18.59
2018-03-31T06:47:09.245Z,18.62
2018-03-31T06:48:08.928Z,18.62
2018-03-31T06:49:09.004Z,18.56
2018-03-31T06:50:09.028Z,18.64
2018-03-31T06:51:09.072Z,18.59
2018-03-31T06:52:09.085Z,18.59
2018-03-31T06:53:09.423Z,18.57
2018-03-31T06:54:09.102Z,18.56
2018-03-31T06:55:09.124Z,18.65
2018-03-31T06:56:09.207Z,18.57
2018-03-31T06:57:09.234Z,18.66
2018-03-31T06:58:09.208Z,18.69
2018-03-31T06:59:09.593Z,18.68
2018-03-31T07:00:09.320Z,18.65
2018-03-31T07:01:09.309Z,18.62
2018-03-31T07:02:09.389Z,18.66
2018-03-31T07:03:09.357Z,18.71
2018-03-31T07:04:09.453Z,18.64
2018-03-31T07:05:09.760Z,18.62
2018-03-31T07:06:09.440Z,18.66
2018-03-31T07:07:09.525Z,18.64
2018-03-31T07:08:09.496Z,18.69
2018-03-31T07:09:09.585Z,18.69
2018-03-31T07:10:09.556Z,18.72
2018-03-31T07:11:09.940Z,18.72
2018-03-31T07:12:09.612Z,18.75
2018-03-31T07:13:09.646Z,18.69
2018-03-31T07:14:09.721Z,18.69
2018-03-31T07:15:09.750Z,18.71
2018-03-31T07:16:09.808Z,18.75
2018-03-31T07:17:10.108Z,18.74
2018-03-31T07:18:09.842Z,18.71
2018-03-31T07:19:09.877Z,18.71
2018-03-31T07:20:09.897Z,18.75
2018-03-31T07:21:09.931Z,18.72
2018-03-31T07:22:09.975Z,18.82
2018-03-31T07:23:10.282Z,18.79
2018-03-31T07:24:10.009Z,18.78
2018-03-31T07:25:10.047Z,18.78
2018-03-31T07:26:10.072Z,18.76
2018-03-31T07:27:10.050Z,18.78
2018-03-31T07:28:10.110Z,18.76
2018-03-31T07:29:10.455Z,18.83
2018-03-31T07:30:10.199Z,18.82
2018-03-31T07:31:10.163Z,18.83
2018-03-31T07:32:10.296Z,18.76
2018-03-31T07:33:10.280Z,18.79
2018-03-31T07:34:10.270Z,18.84
2018-03-31T07:35:10.631Z,18.75
2018-03-31T07:36:10.391Z,18.79
2018-03-31T07:37:10.345Z,18.87
2018-03-31T07:38:10.427Z,18.91
2018-03-31T07:39:10.459Z,18.90
2018-03-31T07:40:10.423Z,18.86
2018-03-31T07:41:10.531Z,18.86
2018-03-31T07:42:10.836Z,18.86
2018-03-31T07:43:10.513Z,18.91
2018-03-31T07:44:10.539Z,18.83
2018-03-31T07:45:10.626Z,18.86
2018-03-31T07:46:10.599Z,18.86
2018-03-31T07:47:10.693Z,18.84
2018-03-31T07:48:10.709Z,18.86
2018-03-31T07:49:11.035Z,18.83
2018-03-31T07:50:10.771Z,18.87
2018-03-31T07:51:10.756Z,18.84
2018-03-31T07:52:10.778Z,18.78
2018-03-31T07:53:10.803Z,18.84
2018-03-31T07:54:10.907Z,18.94
2018-03-31T07:55:10.861Z,18.90
2018-03-31T07:56:11.244Z,18.94
2018-03-31T07:57:10.932Z,18.90
2018-03-31T07:58:11.004Z,18.91
2018-03-31T07:59:11.034Z,18.96
2018-03-31T08:00:11.026Z,19.01
2018-03-31T08:01:11.034Z,18.79
2018-03-31T08:02:11.119Z,18.84
2018-03-31T08:03:11.456Z,18.87
2018-03-31T08:04:11.182Z,18.89
2018-03-31T08:05:11.209Z,18.86
2018-03-31T08:06:11.239Z,18.93
2018-03-31T08:07:11.265Z,18.90
2018-03-31T08:08:11.291Z,18.87
2018-03-31T08:09:11.324Z,18.86
2018-03-31T08:10:11.650Z,18.93
2018-03-31T08:11:11.384Z,18.99
2018-03-31T08:12:11.411Z,18.90
2018-03-31T08:13:11.432Z,18.94
2018-03-31T08:14:11.464Z,18.93
2018-03-31T08:15:11.479Z,18.97
2018-03-31T08:16:11.478Z,18.99
2018-03-31T08:17:11.852Z,18.94
2018-03-31T08:18:11.533Z,19.02
2018-03-31T08:19:11.616Z,18.91
2018-03-31T08:20:11.640Z,18.94
2018-03-31T08:21:11.677Z,19.02
2018-03-31T08:22:11.647Z,18.97
2018-03-31T08:23:11.737Z,18.97
2018-03-31T08:24:12.057Z,18.96
2018-03-31T08:25:11.804Z,19.01
2018-03-31T08:26:11.820Z,19.07
2018-03-31T08:27:11.793Z,18.97
2018-03-31T08:28:11.882Z,19.06
2018-03-31T08:29:11.852Z,18.97
2018-03-31T08:30:11.941Z,18.99
2018-03-31T08:31:12.270Z,19.06
2018-03-31T08:32:11.992Z,19.09
2018-03-31T08:33:12.038Z,19.07
2018-03-31T08:34:12.056Z,19.06
2018-03-31T08:35:12.128Z,19.12
2018-03-31T08:36:12.064Z,19.07
2018-03-31T08:37:12.137Z,19.06
2018-03-31T08:38:12.471Z,19.06
2018-03-31T08:39:12.209Z,19.12
2018-03-31T08:40:12.231Z,19.10
2018-03-31T08:41:12.204Z,19.01
2018-03-31T08:42:12.243Z,19.10
2018-03-31T08:43:12.311Z,19.05
2018-03-31T08:44:12.347Z,19.09
2018-03-31T08:45:12.671Z,19.09
2018-03-31T08:46:12.423Z,19.06
2018-03-31T08:47:12.496Z,19.12
2018-03-31T08:48:12.461Z,19.10
2018-03-31T08:49:12.488Z,19.15
2018-03-31T08:50:12.517Z,19.12
2018-03-31T08:51:12.556Z,19.20
2018-03-31T08:52:12.875Z,19.07
2018-03-31T08:53:12.608Z,19.13
2018-03-31T08:54:12.636Z,19.20
2018-03-31T08:55:12.698Z,19.15
2018-03-31T08:56:12.700Z,19.13
2018-03-31T08:57:12.722Z,19.12
2018-03-31T08:58:13.054Z,19.20
2018-03-31T08:59:12.754Z,19.20
2018-03-31T09:00:12.811Z,19.21
2018-03-31T09:01:12.844Z,19.20
2018-03-31T09:02:12.873Z,19.28
2018-03-31T09:03:12.902Z,19.17
2018-03-31T09:04:13.249Z,19.28
2018-03-31T09:05:12.913Z,19.13
2018-03-31T09:06:12.986Z,19.20
2018-03-31T09:07:12.977Z,19.20
2018-03-31T09:08:13.180Z,19.25
2018-03-31T09:09:13.154Z,19.25
2018-03-31T09:10:13.474Z,19.24
2018-03-31T09:11:13.135Z,19.31
2018-03-31T09:12:13.168Z,19.25
2018-03-31T09:13:13.196Z,19.17
2018-03-31T09:14:13.226Z,19.27
2018-03-31T09:15:13.269Z,19.27
2018-03-31T09:16:13.581Z,19.24
2018-03-31T09:17:13.309Z,19.25
2018-03-31T09:18:13.294Z,19.24
2018-03-31T09:19:13.373Z,19.34
2018-03-31T09:20:13.400Z,19.27
2018-03-31T09:21:13.378Z,19.30
2018-03-31T09:22:13.768Z,19.27
2018-03-31T09:23:13.491Z,19.28
2018-03-31T09:24:13.522Z,19.30
2018-03-31T09:25:13.553Z,19.30
2018-03-31T09:26:13.535Z,19.30
2018-03-31T09:27:13.612Z,19.28
2018-03-31T09:28:13.940Z,19.28
2018-03-31T09:29:13.724Z,19.32
2018-03-31T09:30:13.646Z,19.30
2018-03-31T09:31:13.728Z,19.28
2018-03-31T09:32:13.752Z,19.23
2018-03-31T09:33:13.762Z,19.34
2018-03-31T09:34:14.110Z,19.34
2018-03-31T09:35:13.842Z,19.30
2018-03-31T09:36:13.898Z,19.32
2018-03-31T09:37:13.851Z,19.35
2018-03-31T09:38:13.905Z,19.32
2018-03-31T09:39:13.963Z,19.25
2018-03-31T09:40:14.240Z,19.38
2018-03-31T09:41:13.973Z,19.28
2018-03-31T09:42:14.082Z,19.39
2018-03-31T09:43:14.034Z,19.35
2018-03-31T09:44:14.114Z,19.35
2018-03-31T09:45:14.140Z,19.38
2018-03-31T09:46:14.477Z,19.40
2018-03-31T09:47:14.209Z,19.43
2018-03-31T09:48:14.228Z,19.39
2018-03-31T09:49:14.255Z,19.42
2018-03-31T09:50:14.232Z,19.38
2018-03-31T09:51:14.267Z,19.45
2018-03-31T09:52:14.645Z,19.40
2018-03-31T09:53:14.388Z,19.40
2018-03-31T09:54:14.361Z,19.42
2018-03-31T09:55:14.452Z,19.45
2018-03-31T09:56:14.417Z,19.43
2018-03-31T09:57:14.505Z,19.40
2018-03-31T09:58:14.827Z,19.43
2018-03-31T09:59:14.501Z,19.45
2018-03-31T10:00:14.602Z,19.46
2018-03-31T10:01:14.571Z,19.42
2018-03-31T10:02:14.645Z,19.47
2018-03-31T10:03:14.676Z,19.42
2018-03-31T10:04:15.002Z,19.53
2018-03-31T10:05:14.686Z,19.39
2018-03-31T10:06:14.706Z,19.43
2018-03-31T10:07:14.799Z,19.55
2018-03-31T10:08:14.818Z,19.46
2018-03-31T10:09:14.852Z,19.46
2018-03-31T10:10:14.881Z,19.47
2018-03-31T10:11:15.210Z,19.46
2018-03-31T10:12:14.900Z,19.47
2018-03-31T10:13:14.968Z,19.49
2018-03-31T10:14:14.956Z,19.58
2018-03-31T10:15:15.027Z,19.50
2018-03-31T10:16:15.063Z,19.53
2018-03-31T10:17:15.083Z,19.50
2018-03-31T10:18:15.430Z,19.46
2018-03-31T10:19:15.151Z,19.50
2018-03-31T10:20:15.181Z,19.53
2018-03-31T10:21:15.208Z,19.53
2018-03-31T10:22:15.247Z,19.50
2018-03-31T10:23:15.270Z,19.58
2018-03-31T10:24:15.294Z,19.57
2018-03-31T10:25:15.633Z,19.49
2018-03-31T10:26:15.354Z,19.60
2018-03-31T10:27:15.343Z,19.58
2018-03-31T10:28:15.373Z,19.47
2018-03-31T10:29:15.397Z,19.47
2018-03-31T10:30:15.430Z,19.65
2018-03-31T10:31:15.508Z,19.52
2018-03-31T10:32:15.833Z,19.49
2018-03-31T10:33:15.562Z,19.62
2018-03-31T10:34:15.556Z,19.55
2018-03-31T10:35:15.627Z,19.60
2018-03-31T10:36:15.655Z,19.65
2018-03-31T10:37:15.632Z,19.62
2018-03-31T10:38:15.720Z,19.68
2018-03-31T10:39:15.995Z,19.65
2018-03-31T10:40:15.782Z,19.64
2018-03-31T10:41:15.756Z,19.72
2018-03-31T10:42:15.835Z,19.67
2018-03-31T10:43:15.864Z,19.72
2018-03-31T10:44:15.841Z,19.71
2018-03-31T10:45:15.921Z,19.75
2018-03-31T10:46:16.249Z,19.75
2018-03-31T10:47:15.981Z,19.64
2018-03-31T10:48:16.001Z,19.72
2018-03-31T10:49:15.993Z,19.79
2018-03-31T10:50:16.021Z,19.67
2018-03-31T10:51:16.053Z,19.70
2018-03-31T10:52:16.082Z,19.72
2018-03-31T10:53:16.469Z,19.76
2018-03-31T10:54:16.146Z,19.76
2018-03-31T10:55:16.221Z,19.82
2018-03-31T10:56:16.212Z,19.76
2018-03-31T10:57:16.233Z,19.82
2018-03-31T10:58:16.319Z,19.67
2018-03-31T10:59:16.293Z,19.80
2018-03-31T11:00:16.752Z,19.79
2018-03-31T11:01:16.409Z,19.79
2018-03-31T11:02:16.402Z,19.80
2018-03-31T11:03:16.419Z,19.75
2018-03-31T11:04:16.517Z,19.80
2018-03-31T11:05:16.532Z,19.80
2018-03-31T11:06:16.531Z,19.80
2018-03-31T11:07:16.835Z,19.80
2018-03-31T11:08:16.624Z,19.79
2018-03-31T11:09:16.601Z,19.80
2018-03-31T11:10:16.701Z,19.83
2018-03-31T11:11:16.718Z,19.86
2018-03-31T11:12:16.744Z,19.86
2018-03-31T11:13:16.716Z,19.86
2018-03-31T11:14:17.231Z,19.83
2018-03-31T11:15:16.864Z,19.80
2018-03-31T11:16:16.802Z,19.83
2018-03-31T11:17:16.882Z,19.85
2018-03-31T11:18:16.862Z,19.83
2018-03-31T11:19:16.943Z,19.89
2018-03-31T11:20:17.079Z,19.87
2018-03-31T11:21:17.304Z,19.92
2018-03-31T11:22:17.036Z,19.89
2018-03-31T11:23:17.066Z,19.92
2018-03-31T11:24:17.052Z,19.90
2018-03-31T11:25:17.123Z,19.87
2018-03-31T11:26:17.172Z,19.87
2018-03-31T11:27:17.184Z,19.89
2018-03-31T11:28:17.516Z,19.95
2018-03-31T11:29:17.253Z,19.92
2018-03-31T11:30:17.274Z,19.94
2018-03-31T11:31:17.256Z,19.90
2018-03-31T11:32:17.360Z,20.02
2018-03-31T11:33:17.316Z,20.02
2018-03-31T11:34:17.701Z,20.05
2018-03-31T11:35:17.438Z,19.98
2018-03-31T11:36:17.416Z,20.15
2018-03-31T11:37:17.487Z,20.07
2018-03-31T11:38:17.529Z,20.02
2018-03-31T11:39:17.555Z,20.05
2018-03-31T11:40:17.886Z,20.00
2018-03-31T11:41:17.615Z,20.02
2018-03-31T11:42:17.651Z,20.12
2018-03-31T11:43:17.687Z,20.19
2018-03-31T11:44:17.658Z,20.15
2018-03-31T11:45:17.736Z,20.23
2018-03-31T11:46:18.064Z,20.19
2018-03-31T11:47:17.798Z,20.20
2018-03-31T11:48:17.832Z,20.16
2018-03-31T11:49:17.858Z,20.22
2018-03-31T11:50:17.893Z,20.22
2018-03-31T11:51:17.954Z,20.33
2018-03-31T11:52:18.252Z,20.26
2018-03-31T11:53:17.929Z,20.31
2018-03-31T11:54:17.968Z,20.33
2018-03-31T11:55:18.036Z,20.35
2018-03-31T11:56:18.072Z,20.31
2018-03-31T11:57:18.100Z,20.38
2018-03-31T11:58:18.448Z,20.44
2018-03-31T11:59:18.158Z,20.44
2018-03-31T12:00:18.145Z,20.42
2018-03-31T12:01:18.229Z,20.41
2018-03-31T12:02:18.322Z,20.46
2018-03-31T12:03:18.301Z,20.50
2018-03-31T12:04:18.623Z,20.44
2018-03-31T12:05:18.298Z,20.54
2018-03-31T12:06:18.383Z,20.57
2018-03-31T12:07:18.413Z,20.58
2018-03-31T12:08:18.441Z,20.54
2018-03-31T12:09:18.475Z,20.53
2018-03-31T12:10:18.811Z,20.63
2018-03-31T12:11:18.483Z,20.61
2018-03-31T12:12:18.565Z,20.64
2018-03-31T12:13:18.545Z,20.58
2018-03-31T12:14:18.578Z,20.63
2018-03-31T12:15:18.661Z,20.73
2018-03-31T12:16:18.988Z,20.64
2018-03-31T12:17:18.733Z,20.57
2018-03-31T12:18:18.752Z,20.57
2018-03-31T12:19:18.737Z,20.64
2018-03-31T12:20:18.826Z,20.71
2018-03-31T12:21:18.847Z,20.61
2018-03-31T12:22:19.228Z,20.72
2018-03-31T12:23:18.943Z,20.71
2018-03-31T12:24:18.946Z,20.71
2018-03-31T12:25:18.917Z,20.72
2018-03-31T12:26:19.011Z,20.73
2018-03-31T12:27:19.037Z,20.75
2018-03-31T12:28:19.366Z,20.78
2018-03-31T12:29:19.117Z,20.78
2018-03-31T12:30:19.126Z,20.82
2018-03-31T12:31:19.112Z,20.75
2018-03-31T12:32:19.185Z,20.81
2018-03-31T12:33:19.222Z,20.81
2018-03-31T12:34:19.552Z,20.87
2018-03-31T12:35:19.284Z,20.87
2018-03-31T12:36:19.311Z,20.90
2018-03-31T12:37:19.345Z,20.85
2018-03-31T12:38:19.429Z,20.82
2018-03-31T12:39:19.413Z,20.88
2018-03-31T12:40:19.713Z,20.94
2018-03-31T12:41:19.536Z,20.93
2018-03-31T12:42:19.582Z,20.85
2018-03-31T12:43:19.485Z,20.93
2018-03-31T12:44:19.566Z,20.96
2018-03-31T12:45:19.548Z,20.94
2018-03-31T12:46:19.625Z,20.96
2018-03-31T12:47:19.957Z,20.96
2018-03-31T12:48:19.641Z,20.98
2018-03-31T12:49:19.736Z,20.98
2018-03-31T12:50:19.704Z,20.97
2018-03-31T12:51:19.800Z,20.88
2018-03-31T12:52:19.767Z,20.87
2018-03-31T12:53:19.864Z,21.05